sensor_id;sensor_type;location;lat;lon;timestamp;P1;durP1;ratioP1;P2;durP2;ratioP2
8909;SDS011;4490;49.072;8.804;2023-04-03T00:01:06;2.60;;;2.40;;
8909;SDS011;4490;49.072;8.804;2023-04-03T00:03:32;2.83;;;2.13;;
8909;SDS011;4490;49.072;8.804;2023-04-03T00:05:58;2.57;;;2.10;;
8909;SDS011;4490;49.072;8.804;2023-04-03T00:08:24;2.67;;;2.10;;
8909;SDS011;4490;49.072;8.804;2023-04-03T00:10:50;2.60;;;2.40;;
8909;SDS011;4490;49.072;8.804;2023-04-03T00:13:15;3.23;;;2.50;;
8909;SDS011;4490;49.072;8.804;2023-04-03T00:15:41;4.23;;;2.43;;
8909;SDS011;4490;49.072;8.804;2023-04-03T00:18:08;3.17;;;2.33;;
8909;SDS011;4490;49.072;8.804;2023-04-03T00:20:34;2.33;;;2.13;;
8909;SDS011;4490;49.072;8.804;2023-04-03T00:23:00;3.57;;;2.20;;
8909;SDS011;4490;49.072;8.804;2023-04-03T00:25:26;4.40;;;2.40;;
8909;SDS011;4490;49.072;8.804;2023-04-03T00:27:52;2.53;;;2.33;;
8909;SDS011;4490;49.072;8.804;2023-04-03T00:30:18;2.70;;;2.23;;
8909;SDS011;4490;49.072;8.804;2023-04-03T00:32:47;4.43;;;2.30;;
8909;SDS011;4490;49.072;8.804;2023-04-03T00:35:14;2.63;;;2.07;;
8909;SDS011;4490;49.072;8.804;2023-04-03T00:37:41;2.87;;;2.40;;
8909;SDS011;4490;49.072;8.804;2023-04-03T00:40:09;2.63;;;2.20;;
8909;SDS011;4490;49.072;8.804;2023-04-03T00:42:36;4.47;;;3.13;;
8909;SDS011;4490;49.072;8.804;2023-04-03T00:47:28;4.07;;;2.50;;
8909;SDS011;4490;49.072;8.804;2023-04-03T00:49:55;2.97;;;2.40;;
8909;SDS011;4490;49.072;8.804;2023-04-03T00:52:23;2.30;;;2.10;;
8909;SDS011;4490;49.072;8.804;2023-04-03T00:54:53;2.40;;;2.20;;
8909;SDS011;4490;49.072;8.804;2023-04-03T00:57:21;3.43;;;2.40;;
8909;SDS011;4490;49.072;8.804;2023-04-03T00:59:51;2.60;;;2.40;;
8909;SDS011;4490;49.072;8.804;2023-04-03T01:02:22;2.20;;;2.00;;
8909;SDS011;4490;49.072;8.804;2023-04-03T01:04:48;2.73;;;2.30;;
8909;SDS011;4490;49.072;8.804;2023-04-03T01:07:18;2.40;;;2.20;;
8909;SDS011;4490;49.072;8.804;2023-04-03T01:09:47;2.37;;;2.17;;
8909;SDS011;4490;49.072;8.804;2023-04-03T01:14:44;3.47;;;2.37;;
8909;SDS011;4490;49.072;8.804;2023-04-03T01:26:23;3.07;;;2.77;;
8909;SDS011;4490;49.072;8.804;2023-04-03T01:28:50;2.60;;;2.40;;
8909;SDS011;4490;49.072;8.804;2023-04-03T01:31:24;4.10;;;2.53;;
8909;SDS011;4490;49.072;8.804;2023-04-03T01:33:53;4.17;;;2.67;;
8909;SDS011;4490;49.072;8.804;2023-04-03T01:36:22;4.13;;;2.63;;
8909;SDS011;4490;49.072;8.804;2023-04-03T01:38:50;2.70;;;2.50;;
8909;SDS011;4490;49.072;8.804;2023-04-03T01:41:17;4.77;;;2.40;;
8909;SDS011;4490;49.072;8.804;2023-04-03T01:43:43;4.93;;;2.50;;
8909;SDS011;4490;49.072;8.804;2023-04-03T01:46:09;2.50;;;2.30;;
8909;SDS011;4490;49.072;8.804;2023-04-03T01:48:35;3.80;;;2.53;;
8909;SDS011;4490;49.072;8.804;2023-04-03T01:51:00;5.77;;;2.57;;
8909;SDS011;4490;49.072;8.804;2023-04-03T01:53:26;3.27;;;2.67;;
8909;SDS011;4490;49.072;8.804;2023-04-03T01:55:52;3.73;;;2.43;;
8909;SDS011;4490;49.072;8.804;2023-04-03T01:58:17;4.77;;;2.53;;
8909;SDS011;4490;49.072;8.804;2023-04-03T02:00:43;3.80;;;2.70;;
8909;SDS011;4490;49.072;8.804;2023-04-03T02:03:14;3.60;;;2.60;;
8909;SDS011;4490;49.072;8.804;2023-04-03T02:05:40;5.27;;;2.57;;
8909;SDS011;4490;49.072;8.804;2023-04-03T02:08:06;5.03;;;2.70;;
8909;SDS011;4490;49.072;8.804;2023-04-03T02:10:32;3.93;;;2.50;;
8909;SDS011;4490;49.072;8.804;2023-04-03T02:12:57;3.53;;;2.67;;
8909;SDS011;4490;49.072;8.804;2023-04-03T02:15:23;3.83;;;2.50;;
8909;SDS011;4490;49.072;8.804;2023-04-03T02:17:49;3.10;;;2.70;;
8909;SDS011;4490;49.072;8.804;2023-04-03T02:20:14;2.93;;;2.40;;
8909;SDS011;4490;49.072;8.804;2023-04-03T02:22:40;2.30;;;2.10;;
8909;SDS011;4490;49.072;8.804;2023-04-03T02:25:06;2.83;;;2.57;;
8909;SDS011;4490;49.072;8.804;2023-04-03T02:27:32;3.67;;;2.60;;
8909;SDS011;4490;49.072;8.804;2023-04-03T02:29:58;3.17;;;2.50;;
8909;SDS011;4490;49.072;8.804;2023-04-03T02:32:23;3.17;;;2.47;;
8909;SDS011;4490;49.072;8.804;2023-04-03T02:34:49;4.23;;;2.70;;
8909;SDS011;4490;49.072;8.804;2023-04-03T02:37:15;3.10;;;2.50;;
8909;SDS011;4490;49.072;8.804;2023-04-03T02:39:40;3.03;;;2.70;;
8909;SDS011;4490;49.072;8.804;2023-04-03T02:42:06;3.13;;;2.63;;
8909;SDS011;4490;49.072;8.804;2023-04-03T02:44:32;3.67;;;2.63;;
8909;SDS011;4490;49.072;8.804;2023-04-03T02:46:58;3.00;;;2.67;;
8909;SDS011;4490;49.072;8.804;2023-04-03T02:49:23;2.80;;;2.60;;
8909;SDS011;4490;49.072;8.804;2023-04-03T02:51:49;4.33;;;2.70;;
8909;SDS011;4490;49.072;8.804;2023-04-03T02:54:16;2.57;;;2.37;;
8909;SDS011;4490;49.072;8.804;2023-04-03T02:56:41;3.17;;;2.00;;
8909;SDS011;4490;49.072;8.804;2023-04-03T02:59:07;2.73;;;2.30;;
8909;SDS011;4490;49.072;8.804;2023-04-03T03:01:33;3.00;;;2.70;;
8909;SDS011;4490;49.072;8.804;2023-04-03T03:03:59;4.00;;;2.83;;
8909;SDS011;4490;49.072;8.804;2023-04-03T03:06:25;2.70;;;2.50;;
8909;SDS011;4490;49.072;8.804;2023-04-03T03:08:51;2.83;;;2.20;;
8909;SDS011;4490;49.072;8.804;2023-04-03T03:11:17;3.43;;;2.50;;
8909;SDS011;4490;49.072;8.804;2023-04-03T03:13:43;3.07;;;2.77;;
8909;SDS011;4490;49.072;8.804;2023-04-03T03:16:09;3.03;;;2.33;;
8909;SDS011;4490;49.072;8.804;2023-04-03T03:18:35;2.90;;;2.37;;
8909;SDS011;4490;49.072;8.804;2023-04-03T03:21:01;2.97;;;2.50;;
8909;SDS011;4490;49.072;8.804;2023-04-03T03:23:28;2.70;;;2.47;;
8909;SDS011;4490;49.072;8.804;2023-04-03T03:25:59;3.57;;;2.83;;
8909;SDS011;4490;49.072;8.804;2023-04-03T03:28:27;4.67;;;2.90;;
8909;SDS011;4490;49.072;8.804;2023-04-03T03:30:53;3.27;;;2.37;;
8909;SDS011;4490;49.072;8.804;2023-04-03T03:33:19;3.97;;;2.60;;
8909;SDS011;4490;49.072;8.804;2023-04-03T03:35:45;3.07;;;2.37;;
8909;SDS011;4490;49.072;8.804;2023-04-03T03:38:11;3.43;;;2.70;;
8909;SDS011;4490;49.072;8.804;2023-04-03T03:40:36;2.93;;;2.50;;
8909;SDS011;4490;49.072;8.804;2023-04-03T03:43:02;3.07;;;2.40;;
8909;SDS011;4490;49.072;8.804;2023-04-03T03:45:28;2.90;;;2.60;;
8909;SDS011;4490;49.072;8.804;2023-04-03T03:47:54;2.63;;;2.43;;
8909;SDS011;4490;49.072;8.804;2023-04-03T03:50:20;3.03;;;2.80;;
8909;SDS011;4490;49.072;8.804;2023-04-03T03:52:45;3.10;;;2.80;;
8909;SDS011;4490;49.072;8.804;2023-04-03T03:55:11;3.93;;;2.67;;
8909;SDS011;4490;49.072;8.804;2023-04-03T03:57:37;3.27;;;2.70;;
8909;SDS011;4490;49.072;8.804;2023-04-03T04:00:03;2.73;;;2.47;;
8909;SDS011;4490;49.072;8.804;2023-04-03T04:02:29;4.20;;;2.40;;
8909;SDS011;4490;49.072;8.804;2023-04-03T04:04:55;3.47;;;2.83;;
8909;SDS011;4490;49.072;8.804;2023-04-03T04:07:21;4.27;;;2.83;;
8909;SDS011;4490;49.072;8.804;2023-04-03T04:09:47;2.50;;;2.30;;
8909;SDS011;4490;49.072;8.804;2023-04-03T04:12:12;3.17;;;2.57;;
8909;SDS011;4490;49.072;8.804;2023-04-03T04:14:38;3.87;;;2.80;;
8909;SDS011;4490;49.072;8.804;2023-04-03T04:17:04;2.70;;;2.50;;
8909;SDS011;4490;49.072;8.804;2023-04-03T04:19:30;3.70;;;2.50;;
8909;SDS011;4490;49.072;8.804;2023-04-03T04:21:55;3.33;;;2.93;;
8909;SDS011;4490;49.072;8.804;2023-04-03T04:24:21;4.67;;;3.20;;
8909;SDS011;4490;49.072;8.804;2023-04-03T04:26:47;4.77;;;2.90;;
8909;SDS011;4490;49.072;8.804;2023-04-03T04:29:14;3.20;;;2.90;;
8909;SDS011;4490;49.072;8.804;2023-04-03T04:31:39;3.20;;;2.90;;
8909;SDS011;4490;49.072;8.804;2023-04-03T04:34:05;4.13;;;3.20;;
8909;SDS011;4490;49.072;8.804;2023-04-03T04:36:31;4.17;;;2.87;;
8909;SDS011;4490;49.072;8.804;2023-04-03T04:38:57;3.57;;;3.03;;
8909;SDS011;4490;49.072;8.804;2023-04-03T04:41:23;3.57;;;3.23;;
8909;SDS011;4490;49.072;8.804;2023-04-03T04:43:49;4.27;;;2.80;;
8909;SDS011;4490;49.072;8.804;2023-04-03T04:46:15;3.80;;;2.90;;
8909;SDS011;4490;49.072;8.804;2023-04-03T04:48:42;4.53;;;2.97;;
8909;SDS011;4490;49.072;8.804;2023-04-03T04:51:08;4.47;;;3.20;;
8909;SDS011;4490;49.072;8.804;2023-04-03T04:53:33;3.63;;;2.87;;
8909;SDS011;4490;49.072;8.804;2023-04-03T04:55:59;3.13;;;2.83;;
8909;SDS011;4490;49.072;8.804;2023-04-03T04:58:25;4.60;;;2.77;;
8909;SDS011;4490;49.072;8.804;2023-04-03T05:01:01;7.50;;;3.40;;
8909;SDS011;4490;49.072;8.804;2023-04-03T05:03:27;3.93;;;3.13;;
8909;SDS011;4490;49.072;8.804;2023-04-03T05:05:53;4.03;;;2.93;;
8909;SDS011;4490;49.072;8.804;2023-04-03T05:08:19;3.37;;;3.07;;
8909;SDS011;4490;49.072;8.804;2023-04-03T05:10:44;5.10;;;3.30;;
8909;SDS011;4490;49.072;8.804;2023-04-03T05:13:11;3.67;;;3.37;;
8909;SDS011;4490;49.072;8.804;2023-04-03T05:15:36;4.00;;;2.80;;
8909;SDS011;4490;49.072;8.804;2023-04-03T05:18:02;4.10;;;2.97;;
8909;SDS011;4490;49.072;8.804;2023-04-03T05:20:28;4.20;;;2.80;;
8909;SDS011;4490;49.072;8.804;2023-04-03T05:22:54;5.20;;;3.20;;
8909;SDS011;4490;49.072;8.804;2023-04-03T05:25:19;3.60;;;3.30;;
8909;SDS011;4490;49.072;8.804;2023-04-03T05:27:45;3.30;;;3.00;;
8909;SDS011;4490;49.072;8.804;2023-04-03T05:30:11;3.33;;;2.80;;
8909;SDS011;4490;49.072;8.804;2023-04-03T05:32:37;3.40;;;2.83;;
8909;SDS011;4490;49.072;8.804;2023-04-03T05:35:03;3.50;;;2.77;;
8909;SDS011;4490;49.072;8.804;2023-04-03T05:37:29;5.97;;;3.03;;
8909;SDS011;4490;49.072;8.804;2023-04-03T05:39:55;3.40;;;2.63;;
8909;SDS011;4490;49.072;8.804;2023-04-03T05:42:20;4.27;;;2.70;;
8909;SDS011;4490;49.072;8.804;2023-04-03T05:44:46;2.80;;;2.60;;
8909;SDS011;4490;49.072;8.804;2023-04-03T05:47:12;3.80;;;3.03;;
8909;SDS011;4490;49.072;8.804;2023-04-03T05:49:38;3.90;;;3.07;;
8909;SDS011;4490;49.072;8.804;2023-04-03T05:52:06;3.60;;;2.50;;
8909;SDS011;4490;49.072;8.804;2023-04-03T05:54:50;4.80;;;3.10;;
8909;SDS011;4490;49.072;8.804;2023-04-03T05:57:16;3.37;;;3.07;;
8909;SDS011;4490;49.072;8.804;2023-04-03T05:59:42;4.53;;;2.50;;
8909;SDS011;4490;49.072;8.804;2023-04-03T06:02:12;3.90;;;2.97;;
8909;SDS011;4490;49.072;8.804;2023-04-03T06:04:39;4.20;;;2.80;;
8909;SDS011;4490;49.072;8.804;2023-04-03T06:07:04;3.07;;;2.43;;
8909;SDS011;4490;49.072;8.804;2023-04-03T06:09:30;4.00;;;2.77;;
8909;SDS011;4490;49.072;8.804;2023-04-03T06:11:57;4.60;;;2.77;;
8909;SDS011;4490;49.072;8.804;2023-04-03T06:14:24;5.23;;;3.07;;
8909;SDS011;4490;49.072;8.804;2023-04-03T06:16:50;4.30;;;2.93;;
8909;SDS011;4490;49.072;8.804;2023-04-03T06:19:16;4.37;;;2.70;;
8909;SDS011;4490;49.072;8.804;2023-04-03T06:21:42;5.03;;;3.10;;
8909;SDS011;4490;49.072;8.804;2023-04-03T06:24:09;3.27;;;2.90;;
8909;SDS011;4490;49.072;8.804;2023-04-03T06:26:37;3.67;;;2.80;;
8909;SDS011;4490;49.072;8.804;2023-04-03T06:29:03;3.63;;;3.00;;
8909;SDS011;4490;49.072;8.804;2023-04-03T06:31:28;3.33;;;3.03;;
8909;SDS011;4490;49.072;8.804;2023-04-03T06:33:54;3.90;;;3.20;;
8909;SDS011;4490;49.072;8.804;2023-04-03T06:36:21;3.87;;;3.17;;
8909;SDS011;4490;49.072;8.804;2023-04-03T06:38:47;5.00;;;3.07;;
8909;SDS011;4490;49.072;8.804;2023-04-03T06:41:13;5.67;;;3.53;;
8909;SDS011;4490;49.072;8.804;2023-04-03T06:43:39;5.77;;;3.13;;
8909;SDS011;4490;49.072;8.804;2023-04-03T06:46:05;3.87;;;3.17;;
8909;SDS011;4490;49.072;8.804;2023-04-03T06:48:31;4.97;;;3.20;;
8909;SDS011;4490;49.072;8.804;2023-04-03T06:50:57;5.60;;;3.40;;
8909;SDS011;4490;49.072;8.804;2023-04-03T06:53:23;4.47;;;3.20;;
8909;SDS011;4490;49.072;8.804;2023-04-03T06:55:48;3.70;;;3.03;;
8909;SDS011;4490;49.072;8.804;2023-04-03T06:58:14;5.70;;;3.53;;
8909;SDS011;4490;49.072;8.804;2023-04-03T07:00:42;4.57;;;3.50;;
8909;SDS011;4490;49.072;8.804;2023-04-03T07:03:08;6.60;;;3.57;;
8909;SDS011;4490;49.072;8.804;2023-04-03T07:05:33;5.70;;;3.47;;
8909;SDS011;4490;49.072;8.804;2023-04-03T07:07:59;4.40;;;3.40;;
8909;SDS011;4490;49.072;8.804;2023-04-03T07:10:25;3.77;;;3.30;;
8909;SDS011;4490;49.072;8.804;2023-04-03T07:12:51;4.57;;;3.40;;
8909;SDS011;4490;49.072;8.804;2023-04-03T07:15:20;4.00;;;3.47;;
8909;SDS011;4490;49.072;8.804;2023-04-03T07:17:46;4.00;;;3.30;;
8909;SDS011;4490;49.072;8.804;2023-04-03T07:20:11;4.50;;;3.43;;
8909;SDS011;4490;49.072;8.804;2023-04-03T07:22:37;5.07;;;3.40;;
8909;SDS011;4490;49.072;8.804;2023-04-03T07:25:03;5.23;;;3.40;;
8909;SDS011;4490;49.072;8.804;2023-04-03T07:27:29;7.43;;;3.37;;
8909;SDS011;4490;49.072;8.804;2023-04-03T07:29:55;4.03;;;3.23;;
8909;SDS011;4490;49.072;8.804;2023-04-03T07:32:21;6.80;;;3.80;;
8909;SDS011;4490;49.072;8.804;2023-04-03T07:34:47;6.13;;;3.50;;
8909;SDS011;4490;49.072;8.804;2023-04-03T07:37:12;6.30;;;3.43;;
8909;SDS011;4490;49.072;8.804;2023-04-03T07:39:38;4.37;;;3.70;;
8909;SDS011;4490;49.072;8.804;2023-04-03T07:42:04;5.43;;;3.23;;
8909;SDS011;4490;49.072;8.804;2023-04-03T07:44:29;5.70;;;3.47;;
8909;SDS011;4490;49.072;8.804;2023-04-03T07:46:55;4.83;;;3.23;;
8909;SDS011;4490;49.072;8.804;2023-04-03T07:49:21;4.00;;;3.17;;
8909;SDS011;4490;49.072;8.804;2023-04-03T07:51:51;5.57;;;3.63;;
8909;SDS011;4490;49.072;8.804;2023-04-03T07:54:17;7.67;;;3.73;;
8909;SDS011;4490;49.072;8.804;2023-04-03T07:56:43;4.27;;;3.33;;
8909;SDS011;4490;49.072;8.804;2023-04-03T07:59:10;3.70;;;3.30;;
8909;SDS011;4490;49.072;8.804;2023-04-03T08:01:36;5.33;;;3.50;;
8909;SDS011;4490;49.072;8.804;2023-04-03T08:04:02;4.93;;;3.50;;
8909;SDS011;4490;49.072;8.804;2023-04-03T08:06:28;3.07;;;2.60;;
8909;SDS011;4490;49.072;8.804;2023-04-03T08:08:56;4.30;;;3.30;;
8909;SDS011;4490;49.072;8.804;2023-04-03T08:11:23;3.90;;;3.33;;
8909;SDS011;4490;49.072;8.804;2023-04-03T08:13:51;3.77;;;3.20;;
8909;SDS011;4490;49.072;8.804;2023-04-03T08:16:18;3.00;;;2.70;;
8909;SDS011;4490;49.072;8.804;2023-04-03T08:18:47;5.53;;;3.33;;
8909;SDS011;4490;49.072;8.804;2023-04-03T08:21:13;8.27;;;3.00;;
8909;SDS011;4490;49.072;8.804;2023-04-03T08:23:40;4.60;;;2.80;;
8909;SDS011;4490;49.072;8.804;2023-04-03T08:26:09;3.33;;;2.60;;
8909;SDS011;4490;49.072;8.804;2023-04-03T08:28:37;3.30;;;2.90;;
8909;SDS011;4490;49.072;8.804;2023-04-03T08:31:04;3.93;;;2.63;;
8909;SDS011;4490;49.072;8.804;2023-04-03T08:33:31;6.40;;;2.70;;
8909;SDS011;4490;49.072;8.804;2023-04-03T08:35:57;3.33;;;2.70;;
8909;SDS011;4490;49.072;8.804;2023-04-03T08:38:23;5.37;;;2.30;;
8909;SDS011;4490;49.072;8.804;2023-04-03T08:40:59;4.63;;;2.70;;
8909;SDS011;4490;49.072;8.804;2023-04-03T08:43:55;5.40;;;2.97;;
8909;SDS011;4490;49.072;8.804;2023-04-03T08:51:57;3.27;;;2.60;;
8909;SDS011;4490;49.072;8.804;2023-04-03T08:54:46;4.60;;;2.70;;
8909;SDS011;4490;49.072;8.804;2023-04-03T08:57:15;3.87;;;2.57;;
8909;SDS011;4490;49.072;8.804;2023-04-03T08:59:44;4.90;;;2.70;;
8909;SDS011;4490;49.072;8.804;2023-04-03T09:02:31;3.30;;;2.77;;
8909;SDS011;4490;49.072;8.804;2023-04-03T09:08:21;4.40;;;2.60;;
8909;SDS011;4490;49.072;8.804;2023-04-03T09:10:49;3.17;;;2.40;;
8909;SDS011;4490;49.072;8.804;2023-04-03T09:15:49;4.20;;;2.80;;
8909;SDS011;4490;49.072;8.804;2023-04-03T09:18:23;5.80;;;2.67;;
8909;SDS011;4490;49.072;8.804;2023-04-03T09:21:08;4.67;;;2.60;;
8909;SDS011;4490;49.072;8.804;2023-04-03T09:23:46;3.33;;;2.30;;
8909;SDS011;4490;49.072;8.804;2023-04-03T09:26:21;5.30;;;2.47;;
8909;SDS011;4490;49.072;8.804;2023-04-03T09:28:51;6.13;;;2.47;;
8909;SDS011;4490;49.072;8.804;2023-04-03T09:31:29;4.60;;;2.87;;
8909;SDS011;4490;49.072;8.804;2023-04-03T09:34:09;4.40;;;2.50;;
8909;SDS011;4490;49.072;8.804;2023-04-03T09:36:51;2.83;;;2.40;;
8909;SDS011;4490;49.072;8.804;2023-04-03T09:39:27;5.13;;;2.10;;
8909;SDS011;4490;49.072;8.804;2023-04-03T09:41:55;3.17;;;2.47;;
8909;SDS011;4490;49.072;8.804;2023-04-03T09:44:27;4.50;;;2.47;;
8909;SDS011;4490;49.072;8.804;2023-04-03T09:46:55;3.07;;;2.23;;
8909;SDS011;4490;49.072;8.804;2023-04-03T09:49:21;4.60;;;2.60;;
8909;SDS011;4490;49.072;8.804;2023-04-03T09:51:47;3.97;;;2.40;;
8909;SDS011;4490;49.072;8.804;2023-04-03T09:54:30;3.73;;;2.40;;
8909;SDS011;4490;49.072;8.804;2023-04-03T09:56:57;4.53;;;2.30;;
8909;SDS011;4490;49.072;8.804;2023-04-03T09:59:29;2.73;;;1.77;;
8909;SDS011;4490;49.072;8.804;2023-04-03T10:01:57;3.37;;;2.07;;
8909;SDS011;4490;49.072;8.804;2023-04-03T10:04:44;2.23;;;2.00;;
8909;SDS011;4490;49.072;8.804;2023-04-03T10:07:26;3.37;;;2.10;;
8909;SDS011;4490;49.072;8.804;2023-04-03T10:09:54;3.43;;;2.40;;
8909;SDS011;4490;49.072;8.804;2023-04-03T10:12:21;3.13;;;2.13;;
8909;SDS011;4490;49.072;8.804;2023-04-03T10:20:21;2.10;;;1.83;;
8909;SDS011;4490;49.072;8.804;2023-04-03T10:34:28;4.70;;;2.60;;
8909;SDS011;4490;49.072;8.804;2023-04-03T10:37:04;5.13;;;2.30;;
8909;SDS011;4490;49.072;8.804;2023-04-03T10:47:34;8.40;;;2.70;;
8909;SDS011;4490;49.072;8.804;2023-04-03T10:57:59;3.83;;;2.30;;
8909;SDS011;4490;49.072;8.804;2023-04-03T11:00:45;4.63;;;2.47;;
8909;SDS011;4490;49.072;8.804;2023-04-03T11:04:15;3.00;;;2.13;;
8909;SDS011;4490;49.072;8.804;2023-04-03T11:06:12;4.50;;;2.23;;
8909;SDS011;4490;49.072;8.804;2023-04-03T11:08:48;4.53;;;2.50;;
8909;SDS011;4490;49.072;8.804;2023-04-03T11:11:22;3.03;;;2.47;;
8909;SDS011;4490;49.072;8.804;2023-04-03T11:13:54;3.23;;;2.93;;
8909;SDS011;4490;49.072;8.804;2023-04-03T11:16:27;3.07;;;2.07;;
8909;SDS011;4490;49.072;8.804;2023-04-03T11:19:14;3.80;;;2.20;;
8909;SDS011;4490;49.072;8.804;2023-04-03T11:22:27;4.47;;;2.33;;
8909;SDS011;4490;49.072;8.804;2023-04-03T11:27:43;4.37;;;2.47;;
8909;SDS011;4490;49.072;8.804;2023-04-03T11:33:32;2.87;;;2.20;;
8909;SDS011;4490;49.072;8.804;2023-04-03T11:36:24;3.00;;;2.00;;
8909;SDS011;4490;49.072;8.804;2023-04-03T11:38:56;2.93;;;2.23;;
8909;SDS011;4490;49.072;8.804;2023-04-03T11:41:25;2.60;;;1.90;;
8909;SDS011;4490;49.072;8.804;2023-04-03T12:09:04;3.97;;;2.40;;
8909;SDS011;4490;49.072;8.804;2023-04-03T12:11:46;2.90;;;2.07;;
8909;SDS011;4490;49.072;8.804;2023-04-03T12:14:14;4.10;;;2.30;;
8909;SDS011;4490;49.072;8.804;2023-04-03T12:16:42;3.10;;;2.30;;
8909;SDS011;4490;49.072;8.804;2023-04-03T12:26:47;3.20;;;2.33;;
8909;SDS011;4490;49.072;8.804;2023-04-03T12:32:04;2.80;;;2.37;;
8909;SDS011;4490;49.072;8.804;2023-04-03T12:43:31;3.73;;;2.00;;
8909;SDS011;4490;49.072;8.804;2023-04-03T12:48:30;3.37;;;2.33;;
8909;SDS011;4490;49.072;8.804;2023-04-03T12:50:57;4.53;;;2.17;;
8909;SDS011;4490;49.072;8.804;2023-04-03T12:53:28;3.53;;;2.20;;
8909;SDS011;4490;49.072;8.804;2023-04-03T12:58:52;2.60;;;2.40;;
8909;SDS011;4490;49.072;8.804;2023-04-03T13:01:25;3.47;;;2.40;;
8909;SDS011;4490;49.072;8.804;2023-04-03T13:03:52;3.57;;;2.40;;
8909;SDS011;4490;49.072;8.804;2023-04-03T13:06:23;3.00;;;2.30;;
8909;SDS011;4490;49.072;8.804;2023-04-03T13:08:53;3.77;;;2.47;;
8909;SDS011;4490;49.072;8.804;2023-04-03T13:11:22;4.37;;;2.30;;
8909;SDS011;4490;49.072;8.804;2023-04-03T13:13:53;4.67;;;2.50;;
8909;SDS011;4490;49.072;8.804;2023-04-03T13:16:23;4.93;;;2.47;;
8909;SDS011;4490;49.072;8.804;2023-04-03T13:18:50;4.93;;;2.30;;
8909;SDS011;4490;49.072;8.804;2023-04-03T13:21:18;3.97;;;2.30;;
8909;SDS011;4490;49.072;8.804;2023-04-03T13:23:48;3.93;;;2.40;;
8909;SDS011;4490;49.072;8.804;2023-04-03T13:26:17;3.90;;;2.23;;
8909;SDS011;4490;49.072;8.804;2023-04-03T13:28:45;5.43;;;2.77;;
8909;SDS011;4490;49.072;8.804;2023-04-03T13:33:39;4.57;;;2.47;;
8909;SDS011;4490;49.072;8.804;2023-04-03T13:36:20;3.10;;;2.30;;
8909;SDS011;4490;49.072;8.804;2023-04-03T13:38:59;2.70;;;2.00;;
8909;SDS011;4490;49.072;8.804;2023-04-03T13:41:30;3.27;;;2.13;;
8909;SDS011;4490;49.072;8.804;2023-04-03T13:44:18;2.30;;;2.10;;
8909;SDS011;4490;49.072;8.804;2023-04-03T13:46:59;3.03;;;2.10;;
8909;SDS011;4490;49.072;8.804;2023-04-03T13:49:41;3.87;;;2.40;;
8909;SDS011;4490;49.072;8.804;2023-04-03T13:53:09;3.57;;;2.50;;
8909;SDS011;4490;49.072;8.804;2023-04-03T13:55:24;3.00;;;2.50;;
8909;SDS011;4490;49.072;8.804;2023-04-03T14:00:29;4.70;;;2.57;;
8909;SDS011;4490;49.072;8.804;2023-04-03T14:02:59;3.97;;;2.33;;
8909;SDS011;4490;49.072;8.804;2023-04-03T14:05:25;2.30;;;2.10;;
8909;SDS011;4490;49.072;8.804;2023-04-03T14:07:52;2.63;;;2.20;;
8909;SDS011;4490;49.072;8.804;2023-04-03T14:10:19;4.77;;;2.83;;
8909;SDS011;4490;49.072;8.804;2023-04-03T14:12:45;3.40;;;2.30;;
8909;SDS011;4490;49.072;8.804;2023-04-03T14:15:23;2.83;;;1.90;;
8909;SDS011;4490;49.072;8.804;2023-04-03T14:17:52;3.53;;;2.13;;
8909;SDS011;4490;49.072;8.804;2023-04-03T14:20:20;2.83;;;2.40;;
8909;SDS011;4490;49.072;8.804;2023-04-03T14:22:48;3.83;;;2.50;;
8909;SDS011;4490;49.072;8.804;2023-04-03T14:25:14;3.60;;;2.70;;
8909;SDS011;4490;49.072;8.804;2023-04-03T14:27:47;2.40;;;2.20;;
8909;SDS011;4490;49.072;8.804;2023-04-03T14:30:20;3.77;;;2.40;;
8909;SDS011;4490;49.072;8.804;2023-04-03T14:32:49;2.90;;;2.33;;
8909;SDS011;4490;49.072;8.804;2023-04-03T14:35:15;3.50;;;2.60;;
8909;SDS011;4490;49.072;8.804;2023-04-03T14:37:42;3.97;;;2.50;;
8909;SDS011;4490;49.072;8.804;2023-04-03T14:40:11;3.63;;;2.43;;
8909;SDS011;4490;49.072;8.804;2023-04-03T14:42:42;3.70;;;2.40;;
8909;SDS011;4490;49.072;8.804;2023-04-03T14:45:09;3.60;;;2.47;;
8909;SDS011;4490;49.072;8.804;2023-04-03T14:47:39;4.90;;;2.50;;
8909;SDS011;4490;49.072;8.804;2023-04-03T14:50:17;2.87;;;2.40;;
8909;SDS011;4490;49.072;8.804;2023-04-03T14:52:46;3.07;;;2.30;;
8909;SDS011;4490;49.072;8.804;2023-04-03T14:55:15;4.63;;;2.47;;
8909;SDS011;4490;49.072;8.804;2023-04-03T14:57:42;3.30;;;2.40;;
8909;SDS011;4490;49.072;8.804;2023-04-03T15:00:11;2.97;;;2.17;;
8909;SDS011;4490;49.072;8.804;2023-04-03T15:02:42;5.53;;;2.30;;
8909;SDS011;4490;49.072;8.804;2023-04-03T15:05:09;3.47;;;2.40;;
8909;SDS011;4490;49.072;8.804;2023-04-03T15:07:42;2.50;;;2.30;;
8909;SDS011;4490;49.072;8.804;2023-04-03T15:12:45;3.17;;;2.43;;
8909;SDS011;4490;49.072;8.804;2023-04-03T15:15:12;3.00;;;2.30;;
8909;SDS011;4490;49.072;8.804;2023-04-03T15:17:39;5.40;;;2.60;;
8909;SDS011;4490;49.072;8.804;2023-04-03T15:20:15;2.90;;;2.27;;
8909;SDS011;4490;49.072;8.804;2023-04-03T15:22:43;2.70;;;2.47;;
8909;SDS011;4490;49.072;8.804;2023-04-03T15:25:09;3.23;;;2.87;;
8909;SDS011;4490;49.072;8.804;2023-04-03T15:27:35;4.13;;;2.60;;
8909;SDS011;4490;49.072;8.804;2023-04-03T15:30:02;2.80;;;2.50;;
8909;SDS011;4490;49.072;8.804;2023-04-03T15:32:29;2.87;;;2.57;;
8909;SDS011;4490;49.072;8.804;2023-04-03T15:34:55;3.90;;;2.50;;
8909;SDS011;4490;49.072;8.804;2023-04-03T15:37:21;2.87;;;2.57;;
8909;SDS011;4490;49.072;8.804;2023-04-03T15:39:47;3.53;;;2.60;;
8909;SDS011;4490;49.072;8.804;2023-04-03T15:42:12;3.03;;;2.33;;
8909;SDS011;4490;49.072;8.804;2023-04-03T15:44:38;3.07;;;2.67;;
8909;SDS011;4490;49.072;8.804;2023-04-03T15:47:04;3.00;;;2.13;;
8909;SDS011;4490;49.072;8.804;2023-04-03T15:49:30;3.80;;;2.40;;
8909;SDS011;4490;49.072;8.804;2023-04-03T15:51:59;3.90;;;2.40;;
8909;SDS011;4490;49.072;8.804;2023-04-03T15:54:24;4.77;;;2.63;;
8909;SDS011;4490;49.072;8.804;2023-04-03T15:56:50;3.20;;;2.60;;
8909;SDS011;4490;49.072;8.804;2023-04-03T15:59:17;2.90;;;2.60;;
8909;SDS011;4490;49.072;8.804;2023-04-03T16:01:43;3.87;;;2.97;;
8909;SDS011;4490;49.072;8.804;2023-04-03T16:04:08;3.40;;;2.50;;
8909;SDS011;4490;49.072;8.804;2023-04-03T16:06:35;3.60;;;2.40;;
8909;SDS011;4490;49.072;8.804;2023-04-03T16:09:02;4.57;;;2.37;;
8909;SDS011;4490;49.072;8.804;2023-04-03T16:11:28;5.20;;;2.90;;
8909;SDS011;4490;49.072;8.804;2023-04-03T16:13:55;3.93;;;2.57;;
8909;SDS011;4490;49.072;8.804;2023-04-03T16:16:21;3.37;;;2.53;;
8909;SDS011;4490;49.072;8.804;2023-04-03T16:18:48;3.33;;;2.27;;
8909;SDS011;4490;49.072;8.804;2023-04-03T16:21:15;3.37;;;2.30;;
8909;SDS011;4490;49.072;8.804;2023-04-03T16:23:42;4.60;;;2.43;;
8909;SDS011;4490;49.072;8.804;2023-04-03T16:26:09;3.40;;;2.33;;
8909;SDS011;4490;49.072;8.804;2023-04-03T16:28:35;4.20;;;2.30;;
8909;SDS011;4490;49.072;8.804;2023-04-03T16:31:01;3.73;;;2.60;;
8909;SDS011;4490;49.072;8.804;2023-04-03T16:33:30;3.23;;;2.57;;
8909;SDS011;4490;49.072;8.804;2023-04-03T16:35:56;2.67;;;2.43;;
8909;SDS011;4490;49.072;8.804;2023-04-03T16:38:22;2.60;;;2.40;;
8909;SDS011;4490;49.072;8.804;2023-04-03T16:40:48;3.40;;;2.70;;
8909;SDS011;4490;49.072;8.804;2023-04-03T16:43:14;2.70;;;2.20;;
8909;SDS011;4490;49.072;8.804;2023-04-03T16:45:40;3.77;;;2.40;;
8909;SDS011;4490;49.072;8.804;2023-04-03T16:48:06;2.60;;;2.37;;
8909;SDS011;4490;49.072;8.804;2023-04-03T16:50:32;3.47;;;2.20;;
8909;SDS011;4490;49.072;8.804;2023-04-03T16:52:58;4.30;;;2.37;;
8909;SDS011;4490;49.072;8.804;2023-04-03T16:55:27;4.10;;;2.30;;
8909;SDS011;4490;49.072;8.804;2023-04-03T16:57:53;2.87;;;2.53;;
8909;SDS011;4490;49.072;8.804;2023-04-03T17:00:19;2.63;;;2.43;;
8909;SDS011;4490;49.072;8.804;2023-04-03T17:02:45;5.60;;;2.60;;
8909;SDS011;4490;49.072;8.804;2023-04-03T17:05:11;2.30;;;2.10;;
8909;SDS011;4490;49.072;8.804;2023-04-03T17:07:36;3.43;;;2.20;;
8909;SDS011;4490;49.072;8.804;2023-04-03T17:10:02;4.23;;;2.27;;
8909;SDS011;4490;49.072;8.804;2023-04-03T17:12:28;2.93;;;2.07;;
8909;SDS011;4490;49.072;8.804;2023-04-03T17:14:54;3.23;;;2.40;;
8909;SDS011;4490;49.072;8.804;2023-04-03T17:17:23;2.70;;;2.10;;
8909;SDS011;4490;49.072;8.804;2023-04-03T17:19:50;2.70;;;2.27;;
8909;SDS011;4490;49.072;8.804;2023-04-03T17:22:18;3.37;;;2.43;;
8909;SDS011;4490;49.072;8.804;2023-04-03T17:24:44;2.40;;;2.20;;